createdAt,value
2019-04-30T00:05:05.458Z,27.13
2019-04-30T00:08:06.259Z,26.43
2019-04-30T00:11:10.772Z,27.30
2019-04-30T00:14:09.674Z,26.47
2019-04-30T00:17:10.782Z,27.17
2019-04-30T00:20:12.850Z,26.70
2019-04-30T00:23:13.437Z,27.67
2019-04-30T00:26:16.987Z,27.20
2019-04-30T00:29:26.417Z,25.33
2019-04-30T00:32:19.786Z,26.50
2019-04-30T00:35:20.433Z,26.10
2019-04-30T00:38:21.045Z,29.13
2019-04-30T00:41:21.497Z,26.53
2019-04-30T00:44:24.823Z,27.50
2019-04-30T00:47:25.638Z,28.17
2019-04-30T00:50:29.034Z,26.97
2019-04-30T00:53:29.869Z,26.93
2019-04-30T00:56:30.674Z,26.57
2019-04-30T00:59:31.210Z,27.27
2019-04-30T01:05:59.110Z,26.40
2019-04-30T01:09:05.436Z,27.27
2019-04-30T01:12:02.036Z,26.77
2019-04-30T01:15:06.534Z,25.73
2019-04-30T01:18:05.573Z,26.60
2019-04-30T01:21:07.854Z,25.10
2019-04-30T01:24:09.098Z,25.70
2019-04-30T01:27:10.568Z,25.97
2019-04-30T01:30:13.229Z,24.50
2019-04-30T01:33:14.022Z,25.07
2019-04-30T01:36:14.705Z,26.43
2019-04-30T01:39:15.317Z,24.60
2019-04-30T01:42:15.690Z,26.60
2019-04-30T01:45:16.273Z,25.27
2019-04-30T01:48:16.751Z,26.17
2019-04-30T01:51:21.651Z,27.33
2019-04-30T01:54:24.023Z,26.17
2019-04-30T01:57:40.238Z,27.80
2019-04-30T02:00:59.963Z,28.13
2019-04-30T02:04:00.505Z,27.80
2019-04-30T02:07:01.074Z,28.67
2019-04-30T02:10:01.655Z,28.07
2019-04-30T02:13:02.217Z,28.97
2019-04-30T02:16:02.899Z,28.07
2019-04-30T02:19:03.434Z,27.07
2019-04-30T02:22:04.162Z,28.27
2019-04-30T02:25:04.889Z,26.90
2019-04-30T02:28:05.633Z,27.70
2019-04-30T02:31:06.423Z,28.67
2019-04-30T02:37:43.465Z,28.00
2019-04-30T02:40:43.594Z,25.07
2019-04-30T02:43:44.371Z,27.00
2019-04-30T02:46:45.147Z,25.77
2019-04-30T02:49:45.945Z,25.90
2019-04-30T02:52:46.634Z,24.60
2019-04-30T02:55:49.850Z,25.07
2019-04-30T02:58:50.594Z,26.17
2019-04-30T03:01:51.454Z,26.03
2019-04-30T03:04:52.138Z,25.83
2019-04-30T03:07:53.500Z,27.23
2019-04-30T03:10:54.707Z,25.53
2019-04-30T03:13:55.535Z,25.30
2019-04-30T03:17:02.526Z,24.77
2019-04-30T03:20:34.727Z,24.20
2019-04-30T03:23:25.394Z,24.10
2019-04-30T03:26:26.067Z,25.50
2019-04-30T03:29:27.074Z,24.37
2019-04-30T03:32:35.799Z,25.13
2019-04-30T03:35:32.257Z,24.30
2019-04-30T03:38:33.142Z,24.70
2019-04-30T03:41:33.998Z,24.77
2019-04-30T03:44:34.822Z,24.23
2019-04-30T03:47:35.474Z,24.27
2019-04-30T03:50:49.377Z,25.13
2019-04-30T03:53:39.710Z,25.37
2019-04-30T03:56:42.946Z,25.17
2019-04-30T03:59:43.934Z,23.17
2019-04-30T04:02:46.404Z,23.70
2019-04-30T04:12:39.492Z,24.80
2019-04-30T04:15:49.986Z,24.67
2019-04-30T04:18:59.857Z,23.20
2019-04-30T04:22:09.982Z,23.93
2019-04-30T04:25:12.709Z,24.70
2019-04-30T04:28:20.265Z,23.97
2019-04-30T04:31:29.864Z,23.67
2019-04-30T04:34:39.912Z,24.27
2019-04-30T04:37:49.473Z,24.30
2019-04-30T04:41:02.673Z,24.03
2019-04-30T04:44:12.575Z,24.63
2019-04-30T04:47:19.473Z,23.03
2019-04-30T04:50:26.605Z,23.47
2019-04-30T04:53:34.633Z,23.43
2019-04-30T04:56:42.743Z,23.47
2019-04-30T04:59:50.776Z,22.73
2019-04-30T05:03:19.986Z,23.07
2019-04-30T05:06:29.649Z,22.20
2019-04-30T05:09:37.415Z,23.30
2019-04-30T05:12:45.445Z,23.23
2019-04-30T05:15:53.533Z,23.53
2019-04-30T05:19:01.561Z,22.60
2019-04-30T05:22:09.582Z,22.20
2019-04-30T05:25:10.734Z,22.23
2019-04-30T05:28:11.601Z,22.50
2019-04-30T05:31:12.377Z,23.27
2019-04-30T05:34:13.355Z,23.57
2019-04-30T05:37:14.215Z,23.43
2019-04-30T05:40:14.765Z,21.97
2019-04-30T05:43:15.522Z,21.50
2019-04-30T05:46:16.249Z,23.70
2019-04-30T05:49:18.906Z,24.47
2019-04-30T05:52:20.088Z,22.33
2019-04-30T05:55:20.687Z,22.97
2019-04-30T05:58:21.191Z,23.57
2019-04-30T06:01:24.190Z,22.80
2019-04-30T06:04:24.486Z,22.67
2019-04-30T06:07:25.197Z,22.40
2019-04-30T06:10:44.758Z,21.77
2019-04-30T06:14:04.598Z,21.70
2019-04-30T06:17:09.736Z,21.00
2019-04-30T06:20:17.814Z,20.80
2019-04-30T06:23:12.413Z,20.70
2019-04-30T06:26:13.383Z,22.20
2019-04-30T06:29:12.645Z,20.60
2019-04-30T06:32:20.737Z,22.07
2019-04-30T06:35:29.374Z,21.63
2019-04-30T06:38:38.744Z,21.03
2019-04-30T06:41:49.396Z,21.60
2019-04-30T06:44:59.128Z,21.60
2019-04-30T06:48:08.987Z,22.10
2019-04-30T06:51:18.963Z,20.87
2019-04-30T06:54:28.758Z,21.53
2019-04-30T06:57:38.389Z,20.83
2019-04-30T07:00:46.844Z,22.20
2019-04-30T07:03:56.936Z,21.67
2019-04-30T07:07:04.822Z,21.57
2019-04-30T07:10:32.018Z,20.37
2019-04-30T07:17:11.026Z,21.87
2019-04-30T07:20:19.283Z,21.03
2019-04-30T07:23:28.775Z,19.20
2019-04-30T07:26:30.031Z,20.40
2019-04-30T07:29:30.622Z,20.37
2019-04-30T07:32:31.691Z,20.67
2019-04-30T07:35:32.459Z,20.60
2019-04-30T07:38:35.663Z,20.43
2019-04-30T07:41:35.865Z,20.23
2019-04-30T07:44:36.817Z,20.10
2019-04-30T07:47:39.567Z,20.57
2019-04-30T07:50:41.765Z,20.27
2019-04-30T07:53:43.005Z,19.87
2019-04-30T07:56:44.170Z,21.97
2019-04-30T07:59:44.973Z,21.07
2019-04-30T08:03:05.243Z,21.87
2019-04-30T08:06:09.812Z,22.43
2019-04-30T08:09:10.403Z,21.27
2019-04-30T08:12:16.351Z,20.30
2019-04-30T08:15:13.666Z,21.63
2019-04-30T08:18:14.590Z,21.13
2019-04-30T08:21:15.182Z,21.40
2019-04-30T08:24:15.701Z,21.63
2019-04-30T08:27:16.050Z,21.47
2019-04-30T08:30:25.659Z,21.80
2019-04-30T08:33:19.409Z,24.33
2019-04-30T08:36:20.705Z,24.43
2019-04-30T08:39:21.483Z,25.27
2019-04-30T08:42:30.841Z,25.37
2019-04-30T08:45:25.010Z,27.10
2019-04-30T08:48:25.542Z,28.37
2019-04-30T08:51:26.328Z,29.17
2019-04-30T08:54:27.057Z,27.43
2019-04-30T08:57:29.423Z,25.33
2019-04-30T09:00:30.693Z,26.33
2019-04-30T09:03:31.085Z,26.87
2019-04-30T09:06:31.802Z,27.30
2019-04-30T09:09:32.698Z,28.67
2019-04-30T09:12:33.953Z,28.57
2019-04-30T09:15:34.649Z,31.00
2019-04-30T09:18:35.354Z,31.63
2019-04-30T09:21:39.967Z,29.33
2019-04-30T09:24:39.970Z,27.00
2019-04-30T09:27:41.085Z,27.70
2019-04-30T09:30:41.758Z,26.07
2019-04-30T09:33:42.182Z,28.73
2019-04-30T09:36:43.221Z,27.00
2019-04-30T09:39:43.831Z,27.77
2019-04-30T09:42:44.662Z,26.03
2019-04-30T09:45:45.513Z,24.37
2019-04-30T09:48:46.414Z,25.73
2019-04-30T09:51:48.702Z,24.30
2019-04-30T09:54:50.471Z,23.40
2019-04-30T09:57:51.237Z,21.80
2019-04-30T10:00:51.901Z,22.07
2019-04-30T10:03:53.206Z,22.67
2019-04-30T10:06:54.818Z,23.20
2019-04-30T10:09:55.499Z,22.60
2019-04-30T10:12:56.309Z,20.67
2019-04-30T10:16:16.140Z,19.63
2019-04-30T10:19:16.881Z,19.33
2019-04-30T10:22:17.437Z,21.70
2019-04-30T10:25:18.393Z,20.60
2019-04-30T10:28:19.668Z,19.43
2019-04-30T10:31:21.035Z,21.03
2019-04-30T10:34:21.687Z,18.67
2019-04-30T10:37:22.730Z,19.30
2019-04-30T10:40:23.657Z,19.10
2019-04-30T10:43:24.341Z,19.23
2019-04-30T10:46:25.115Z,19.83
2019-04-30T10:49:26.333Z,21.30
2019-04-30T10:52:29.170Z,20.37
2019-04-30T10:55:31.167Z,20.17
2019-04-30T10:58:31.855Z,20.33
2019-04-30T11:01:32.659Z,21.17
2019-04-30T11:04:33.309Z,21.30
2019-04-30T11:07:34.063Z,20.30
2019-04-30T11:10:34.681Z,20.53
2019-04-30T11:13:35.359Z,19.93
2019-04-30T11:16:36.010Z,20.73
2019-04-30T11:19:38.848Z,19.73
2019-04-30T11:22:39.861Z,20.03
2019-04-30T11:25:42.235Z,19.67
2019-04-30T11:28:43.316Z,19.87
2019-04-30T11:32:03.961Z,19.60
2019-04-30T11:35:05.425Z,20.47
2019-04-30T11:38:05.805Z,19.67
2019-04-30T11:41:08.574Z,19.60
2019-04-30T11:44:09.497Z,19.23
2019-04-30T11:47:10.382Z,17.53
2019-04-30T11:50:11.179Z,20.47
2019-04-30T11:53:24.563Z,19.70
2019-04-30T11:56:14.607Z,20.43
2019-04-30T11:59:15.413Z,18.93
2019-04-30T12:02:21.681Z,17.80
2019-04-30T12:05:22.357Z,17.63
2019-04-30T12:08:29.267Z,17.90
2019-04-30T12:11:34.126Z,18.53
2019-04-30T12:14:34.638Z,18.67
2019-04-30T12:17:35.273Z,16.77
2019-04-30T12:20:36.105Z,15.90
2019-04-30T12:23:36.801Z,14.83
2019-04-30T12:26:38.935Z,14.57
2019-04-30T12:29:40.041Z,13.03
2019-04-30T12:32:40.843Z,12.80
2019-04-30T12:35:41.305Z,12.33
2019-04-30T12:38:41.897Z,12.10
2019-04-30T12:41:43.608Z,11.70
2019-04-30T12:44:44.311Z,12.27
2019-04-30T12:47:49.850Z,11.67
2019-04-30T12:53:56.461Z,10.17
2019-04-30T13:00:15.258Z,10.87
2019-04-30T13:03:16.123Z,10.60
2019-04-30T13:06:17.424Z,10.30
2019-04-30T13:09:20.314Z,10.93
2019-04-30T13:12:22.372Z,10.90
2019-04-30T13:15:23.364Z,11.87
2019-04-30T13:18:23.954Z,10.63
2019-04-30T13:21:24.525Z,11.50
2019-04-30T13:24:25.287Z,10.40
2019-04-30T13:27:25.909Z,11.43
2019-04-30T13:30:29.863Z,11.57
2019-04-30T13:36:45.497Z,9.83
2019-04-30T13:40:05.235Z,11.10
2019-04-30T13:43:05.954Z,11.10
2019-04-30T13:46:08.523Z,11.20
2019-04-30T13:49:09.534Z,11.87
2019-04-30T13:52:10.262Z,11.03
2019-04-30T13:55:11.134Z,11.73
2019-04-30T13:58:11.794Z,10.70
2019-04-30T14:01:12.821Z,12.00
2019-04-30T14:07:36.113Z,10.97
2019-04-30T14:10:40.541Z,11.00
2019-04-30T14:13:41.235Z,10.67
2019-04-30T14:16:43.885Z,10.67
2019-04-30T14:19:44.585Z,10.87
2019-04-30T14:22:45.200Z,11.73
2019-04-30T14:25:55.912Z,11.50
2019-04-30T14:28:48.981Z,11.73
2019-04-30T14:31:49.630Z,11.50
2019-04-30T14:34:50.831Z,11.77
2019-04-30T14:37:52.080Z,13.03
2019-04-30T14:40:53.492Z,11.97
2019-04-30T14:47:20.546Z,11.63
2019-04-30T14:50:21.178Z,11.90
2019-04-30T14:53:41.313Z,11.53
2019-04-30T15:00:23.026Z,13.30
2019-04-30T15:03:23.841Z,12.57
2019-04-30T15:06:25.145Z,13.53
2019-04-30T15:09:26.106Z,13.50
2019-04-30T15:12:26.522Z,12.10
2019-04-30T15:15:29.151Z,14.40
2019-04-30T15:18:29.837Z,12.90
2019-04-30T15:21:30.517Z,13.83
2019-04-30T15:24:33.990Z,14.63
2019-04-30T15:27:34.698Z,13.73
2019-04-30T15:30:35.244Z,13.63
2019-04-30T15:34:02.586Z,14.97
2019-04-30T15:36:59.129Z,13.73
2019-04-30T15:40:00.254Z,14.70
2019-04-30T15:43:02.617Z,15.03
2019-04-30T15:46:03.285Z,15.47
2019-04-30T15:49:03.874Z,16.50
2019-04-30T15:52:04.666Z,16.37
2019-04-30T15:55:05.563Z,16.63
2019-04-30T15:58:12.910Z,16.23
2019-04-30T16:01:14.183Z,16.80
2019-04-30T16:04:18.183Z,17.17
2019-04-30T16:07:19.652Z,17.43
2019-04-30T16:10:39.787Z,16.67
2019-04-30T16:13:59.557Z,16.27
2019-04-30T16:17:26.699Z,17.37
2019-04-30T16:20:15.705Z,17.50
2019-04-30T16:23:23.758Z,15.97
2019-04-30T16:26:31.861Z,17.80
2019-04-30T16:29:40.746Z,16.83
2019-04-30T16:32:50.752Z,17.40
2019-04-30T16:35:59.425Z,16.40
2019-04-30T16:39:08.718Z,15.43
2019-04-30T16:42:19.008Z,16.30
2019-04-30T16:45:28.985Z,14.57
2019-04-30T16:48:38.787Z,15.50
2019-04-30T16:51:46.586Z,14.27
2019-04-30T16:54:54.634Z,15.43
2019-04-30T16:58:02.673Z,15.37
2019-04-30T17:04:58.594Z,15.17
2019-04-30T17:08:25.722Z,14.40
2019-04-30T17:11:52.838Z,14.47
2019-04-30T17:15:19.957Z,14.63
2019-04-30T17:18:29.728Z,14.13
2019-04-30T17:21:37.733Z,14.53
2019-04-30T17:24:39.432Z,13.80
2019-04-30T17:27:40.583Z,13.77
2019-04-30T17:30:42.417Z,13.80
2019-04-30T17:33:43.109Z,12.93
2019-04-30T17:36:43.965Z,12.83
2019-04-30T17:39:44.582Z,14.40
2019-04-30T17:42:45.249Z,14.03
2019-04-30T17:45:45.953Z,13.27
2019-04-30T17:48:46.650Z,13.40
2019-04-30T17:51:48.977Z,14.20
2019-04-30T17:54:51.243Z,13.93
2019-04-30T17:57:51.661Z,13.47
2019-04-30T18:00:54.842Z,13.87
2019-04-30T18:03:55.282Z,14.80
2019-04-30T18:06:58.980Z,13.87
2019-04-30T18:09:59.219Z,13.60
2019-04-30T18:12:59.890Z,14.63
2019-04-30T18:16:00.637Z,14.67
2019-04-30T18:22:48.839Z,15.17
2019-04-30T18:25:53.850Z,13.90
2019-04-30T18:28:54.927Z,14.40
2019-04-30T18:31:55.457Z,14.50
2019-04-30T18:34:56.214Z,14.93
2019-04-30T18:37:58.574Z,14.13
2019-04-30T18:40:59.519Z,14.33
2019-04-30T18:43:59.982Z,13.67
2019-04-30T18:47:00.865Z,13.63
2019-04-30T18:50:01.486Z,14.10
2019-04-30T18:53:04.978Z,13.63
2019-04-30T18:56:08.957Z,13.30
2019-04-30T18:59:08.834Z,13.87
2019-04-30T19:02:12.269Z,13.77
2019-04-30T19:05:18.863Z,13.30
2019-04-30T19:08:41.873Z,13.13
2019-04-30T19:15:37.165Z,13.70
2019-04-30T19:18:45.194Z,14.23
2019-04-30T19:21:44.402Z,13.67
2019-04-30T19:24:55.961Z,12.73
2019-04-30T19:27:48.267Z,12.90
2019-04-30T19:30:55.975Z,11.30
2019-04-30T19:33:51.481Z,12.57
2019-04-30T19:36:52.506Z,11.60
2019-04-30T19:39:53.042Z,16.87
2019-04-30T19:42:53.805Z,18.87
2019-04-30T19:45:54.755Z,17.53
2019-04-30T19:48:55.538Z,17.03
2019-04-30T19:52:06.970Z,9.47
2019-04-30T19:54:59.106Z,10.90
2019-04-30T19:58:00.407Z,10.10
2019-04-30T20:01:01.300Z,10.90
2019-04-30T20:04:02.134Z,9.30
2019-04-30T20:07:02.766Z,10.30
2019-04-30T20:10:04.281Z,10.87
2019-04-30T20:13:05.241Z,11.70
2019-04-30T20:16:06.329Z,11.63
2019-04-30T20:19:08.741Z,11.13
2019-04-30T20:22:09.762Z,10.80
2019-04-30T20:25:10.367Z,9.77
2019-04-30T20:28:12.299Z,10.63
2019-04-30T20:31:13.055Z,11.00
2019-04-30T20:34:14.194Z,10.50
2019-04-30T20:37:14.675Z,10.50
2019-04-30T20:40:18.563Z,11.30
2019-04-30T20:43:19.773Z,11.07
2019-04-30T20:46:31.392Z,11.17
2019-04-30T20:49:23.419Z,11.60
2019-04-30T20:52:24.130Z,12.50
2019-04-30T20:55:25.049Z,13.43
2019-04-30T20:58:25.818Z,13.43
2019-04-30T21:01:26.577Z,13.63
2019-04-30T21:04:27.582Z,12.97
2019-04-30T21:07:28.567Z,14.57
2019-04-30T21:10:29.833Z,17.07
2019-04-30T21:13:29.452Z,14.93
2019-04-30T21:16:37.641Z,14.23
2019-04-30T21:19:45.753Z,15.10
2019-04-30T21:22:53.845Z,15.77
2019-04-30T21:25:54.373Z,16.37
2019-04-30T21:28:58.053Z,16.07
2019-04-30T21:35:45.262Z,17.70
2019-04-30T21:38:46.481Z,19.27
2019-04-30T21:41:49.039Z,20.27
2019-04-30T21:44:49.753Z,20.07
2019-04-30T21:47:56.551Z,21.83
2019-04-30T21:50:53.114Z,22.53
2019-04-30T21:53:53.697Z,22.23
2019-04-30T21:56:54.919Z,21.43
2019-04-30T21:59:55.550Z,21.63
2019-04-30T22:02:56.094Z,21.53
2019-04-30T22:05:56.582Z,22.77
2019-04-30T22:08:58.574Z,22.73
2019-04-30T22:11:59.341Z,22.40
2019-04-30T22:14:59.981Z,21.17
2019-04-30T22:18:00.514Z,21.60
2019-04-30T22:21:01.086Z,22.03
2019-04-30T22:24:01.905Z,22.83
2019-04-30T22:27:02.467Z,21.63
2019-04-30T22:30:03.341Z,20.27
2019-04-30T22:33:03.794Z,21.13
2019-04-30T22:36:23.447Z,21.83
2019-04-30T22:39:41.027Z,22.50
2019-04-30T22:42:41.473Z,23.37
2019-04-30T22:45:49.893Z,22.07
2019-04-30T22:48:50.779Z,22.20
2019-04-30T22:51:51.442Z,20.67
2019-04-30T22:54:52.215Z,22.10
2019-04-30T22:57:53.068Z,23.17
2019-04-30T23:00:57.644Z,23.83
2019-04-30T23:04:02.907Z,23.00
2019-04-30T23:07:04.126Z,24.27
2019-04-30T23:10:04.605Z,25.10
2019-04-30T23:13:05.078Z,25.17
2019-04-30T23:16:06.087Z,24.70
2019-04-30T23:19:06.994Z,23.80
2019-04-30T23:22:07.593Z,24.00
2019-04-30T23:25:08.229Z,24.33
2019-04-30T23:28:08.909Z,23.33
2019-04-30T23:31:09.402Z,23.47
2019-04-30T23:34:17.774Z,23.53
2019-04-30T23:37:12.761Z,23.30
2019-04-30T23:40:13.494Z,25.40
2019-04-30T23:43:13.930Z,24.20
2019-04-30T23:46:14.567Z,25.33
2019-04-30T23:49:15.173Z,22.93
2019-04-30T23:52:16.364Z,24.37
2019-04-30T23:55:17.038Z,24.57
2019-04-30T23:58:17.689Z,26.20
